Tiempo atmosférico en la estación meteorológica de Castell, Platja d'Aro, Girona (14 m.)



Fecha
DESCASC
Temp. máxima en grados centígrados (hora)
DESCASC
Temp. mínima en grados centígrados (hora)
DESCASC
Temp. media en grados centígrados
DESCASC
Racha de viento máxima en m/sg (hora)
DESCASC
Velocidad máxima media en intervalos de 10 minutos(hora)
DESCASC
Precipitaciones diarias en mm
DESCASC
Precipitaciones de 00:00 a 06:00 en mm
DESCASC
Precipitaciones de 06:00 a 12:00 en mm
DESCASC
Precipitaciones de 12:00 a 18:00 en mm
DESCASC
Precipitaciones de 18:00 a 24:00 en mm
DESCASC
25-04-2019 19.6 (14:50) 12.1 (23:59) 15.9 10.28 (12:30) 6.39 (15:30) 0 0 0 0 0
24-04-2019 18.6 (11:40) 13.6 (21:50) 16.1 15 (14:00) 6.94 (15:40) 0 0 0 0 0
23-04-2019 19.6 (14:40) 13.2 (07:10) 16.4 9.44 (18:50) 5 (18:50) 8.6 7.4 1.2 0 0
22-04-2019 17.5 (15:00) 14.4 (00:00) 15.9 11.67 (01:50) 5.28 (01:50) 2.8 0 0.6 0 2.2
21-04-2019 18.1 (16:40) 13.4 (00:00) 15.8 12.78 (00:30) 6.67 (00:40) 0.2 0.2 0 0 0
20-04-2019 18.9 (12:30) 13.4 (00:00) 16.1 13.06 (23:59) 6.67 (23:59) 0 0 0 0 0
19-04-2019 19.6 (14:30) 13.9 (00:00) 16.8 13.33 (15:10) 6.11 (15:10) 0 0 0 0 0
18-04-2019 17.7 (12:50) 10.8 (00:00) 14.3 9.17 (17:10) 4.44 (17:20) 0 0 0 0 0
17-04-2019 17.4 (13:20) 6 (00:00) 11.7 6.39 (15:00) 3.89 (15:00) 0 0 0 0 0
16-04-2019 16.6 (15:50) 10.1 (00:00) 13.4 7.5 (17:10) 3.33 (17:10) 0.4 0.2 0 0.2 0
15-04-2019 16 (15:00) 5.5 (00:00) 10.8 6.11 (12:20) 3.33 (11:20) 0 0 0 0 0
14-04-2019 15.1 (17:30) 5.7 (00:00) 10.4 7.22 (12:10) 3.89 (12:10) 0 0 0 0 0
13-04-2019 17.6 (14:30) 5.2 (00:00) 11.4 8.89 (17:20) 4.72 (17:10) 0 0 0 0 0
12-04-2019 18.9 (13:00) 9.5 (00:00) 14.2 9.17 (17:30) 5 (15:30) 0 0 0 0 0
11-04-2019 17.5 (11:30) 7.5 (00:00) 12.5 6.39 (12:50) 3.61 (14:30) 0.2 0 0 0 0.2
10-04-2019 17.6 (18:40) 5.7 (00:00) 11.7 8.06 (17:30) 4.17 (19:30) 1 0 0 1 0
09-04-2019 15.8 (15:20) 9.4 (00:00) 12.6 8.89 (19:00) 5.28 (19:00) 3.8 0.2 3.6 0 0
08-04-2019 17.5 (14:20) 4.9 (00:00) 11.2 9.44 (13:30) 6.11 (13:30) 0 0 0 0 0
07-04-2019 16.8 (13:20) 4 (00:00) 10.4 11.11 (15:00) 5 (14:30) 0 0 0 0 0
06-04-2019 16.9 (14:20) 8.2 (00:00) 12.5 11.67 (17:30) 6.39 (14:40) 0 0 0 0 0
05-04-2019 17.1 (13:30) 2.5 (00:00) 9.8 9.72 (11:00) 4.72 (11:00) 2.4 0 0 0 2.4
04-04-2019 13.1 (15:50) 2.6 (00:00) 7.9 7.22 (00:20) 3.89 (18:50) 0 0 0 0 0
03-04-2019 17.7 (12:20) 6.7 (00:00) 12.2 10.83 (23:30) 4.72 (20:10) 8.4 0.4 0.2 0.2 7.6
02-04-2019 17.6 (16:00) 6 (00:00) 11.8 7.22 (14:30) 3.61 (15:40) 3 0 0 0 3
01-04-2019 16.6 (13:00) 7 (00:00) 11.8 6.11 (16:20) 3.33 (16:30) 0 0 0 0 0
31-03-2019 15.8 (12:10) 5.6 (00:00) 10.7 7.22 (16:40) 4.17 (16:30) 0 0 0 0 0
30-03-2019 16 (12:20) 2.8 (00:00) 9.4 6.67 (13:40) 3.89 (15:10) 0 0 0 0 0
29-03-2019 17.2 (14:00) 3 (00:00) 10.1 6.67 (14:10) 3.33 (14:10) 0 0 0 0 0
28-03-2019 17.3 (11:20) 3.8 (00:00) 10.5 10.83 (12:20) 5.28 (12:20) 0 0 0 0 0
27-03-2019 18.8 (12:00) 6.1 (00:00) 12.4 10 (01:10) 5 (01:10) 0 0 0 0 0

Gráficas

Temp. máximas Temp. mínimas Temp. medias Precipitaciones Rachas de viento máximas Velocidades máximas media en intervalos de 10 minutos

Datos horarios

Fecha y hora oficial Temperatura (ºC) Velocidad del viento (km/h) Dirección del viento Racha (km/h) Dirección de racha Precipitación (mm) Presión (hPa) Tendencia (hPa) Humedad (%)
2019-04-25 23:00:00 14.2 2 Sudoeste 12 Noroeste 0 -- -- 84
2019-04-25 22:00:00 15.2 3 Sur 22 Sudoeste 0 -- -- 80
2019-04-25 21:00:00 15.3 12 Sudoeste 26 Sur 0 -- -- 79
2019-04-25 20:00:00 16.8 11 Sur 34 Sudoeste 0 -- -- 78
2019-04-25 19:00:00 17 9 Sudoeste 35 Sudoeste 0 -- -- 75
2019-04-25 18:00:00 17.5 16 Sudoeste 36 Sudoeste 0 -- -- 77
2019-04-25 17:00:00 18.3 15 Sur 35 Sur 0 -- -- 73
2019-04-25 16:00:00 18.2 17 Sur 36 Sur 0 -- -- 74
2019-04-25 15:00:00 19.3 16 Sur 36 Sur 0 -- -- 64
2019-04-25 14:00:00 18.8 17 Sur 36 Sur 0 -- -- 75
2019-04-25 13:00:00 17.5 15 Sur 37 Sudoeste 0 -- -- 81
2019-04-25 12:00:00 16 18 Sur 33 Sur 0 -- -- 85
2019-04-25 11:00:00 16.2 9 Sur 26 Sur 0 -- -- 83
2019-04-25 10:00:00 15.5 8 Sudoeste 26 Sudoeste 0 -- -- 85
2019-04-25 09:00:00 15.4 10 Sur 32 Sur 0 -- -- 85
2019-04-25 08:00:00 15.1 14 Sur 34 Sudoeste 0 -- -- 85
2019-04-25 07:00:00 14.8 12 Sur 33 Sudoeste 0 -- -- 86
2019-04-25 06:00:00 14.7 13 Sudoeste 34 Sudoeste 0 -- -- 87
2019-04-25 05:00:00 14.6 14 Sudoeste 33 Sudoeste 0 -- -- 88
2019-04-25 04:00:00 14.5 13 Sudoeste 30 Sudoeste 0 -- -- 87
2019-04-25 03:00:00 14.7 8 Sudoeste 34 Sudoeste 0 -- -- 87
2019-04-25 02:00:00 14.8 11 Sudoeste 27 Sur 0 -- -- 87
2019-04-25 01:00:00 14.4 8 Sudoeste 20 Sudoeste 0 -- -- 87
2019-04-25 00:00:00 13.9 7 Sudoeste 26 Sudoeste 0 -- -- 82
2019-04-24 23:00:00 13.7 5 Sudoeste 19 Sudoeste 0 -- -- 83
2019-04-24 22:00:00 13.6 3 Sudoeste 12 Sudoeste 0 -- -- 77
2019-04-24 21:00:00 14.3 5 Oeste 30 Sudoeste 0 -- -- 72
2019-04-24 20:00:00 15 9 Sudoeste 36 Oeste 0 -- -- 71
2019-04-24 19:00:00 15.8 14 Sudoeste 40 Sudoeste 0 -- -- 65
2019-04-24 18:00:00 16.6 10 Sudoeste 39 Sudoeste 0 -- -- 56
2019-04-24 17:00:00 16.5 19 Sudoeste 49 Sur 0 -- -- 61
2019-04-24 16:00:00 16.9 23 Sudoeste 54 Sudoeste 0 -- -- 63
2019-04-24 15:00:00 16.8 25 Sudoeste 49 Sudoeste 0 -- -- 67
2019-04-24 14:00:00 16.7 24 Sudoeste 54 Sudoeste 0 -- -- 66
2019-04-24 13:00:00 17 19 Sudoeste 47 Sudoeste 0 -- -- 63
2019-04-24 12:00:00 18.3 19 Sudoeste 39 Sur 0 -- -- 46
2019-04-24 11:00:00 18.1 11 Sudoeste 36 Sudoeste 0 -- -- 55
2019-04-24 10:00:00 16.2 18 Sudoeste 41 Sudoeste 0 -- -- 76
2019-04-24 09:00:00 15.3 14 Sudoeste 36 Sudoeste 0 -- -- 76
2019-04-24 08:00:00 14.4 12 Sudoeste 33 Sudoeste 0 -- -- 80
2019-04-24 07:00:00 14.3 10 Sudoeste 44 Sudoeste 0 -- -- 89
2019-04-24 06:00:00 14.6 12 Sudoeste 27 Sur 0 -- -- 88
2019-04-24 05:00:00 14.9 14 Sudoeste 37 Sudoeste 0 -- -- 86
2019-04-24 04:00:00 14.6 9 Sudoeste 26 Sur 0 -- -- 87
2019-04-24 03:00:00 14.8 8 Sudoeste 27 Sudoeste 0 -- -- 86
2019-04-24 02:00:00 14.6 11 Sudoeste 31 Sudoeste 0 -- -- 92
2019-04-24 01:00:00 14.1 7 Sur 20 Sudoeste 0 -- -- 91
2019-04-24 00:00:00 14.6 3 Sudoeste 24 Sudoeste 0 -- -- 92
2019-04-23 23:00:00 14.7 9 Sur 19 Sur 0 -- -- 94
2019-04-23 22:00:00 14.9 5 Sur 22 Sudoeste 0 -- -- 93
2019-04-23 21:00:00 15.2 9 Sudoeste 26 Sur 0 -- -- 89
2019-04-23 20:00:00 15.5 9 Sur 31 Sur 0 -- -- 90
2019-04-23 19:00:00 16 17 Sur 34 Sudeste 0 -- -- 85
2019-04-23 18:00:00 17.1 13 Sur 33 Sudeste 0 -- -- 78
2019-04-23 17:00:00 18.6 8 Sur 26 Sudoeste 0 -- -- 68
2019-04-23 16:00:00 19 12 Sur 27 Sur 0 -- -- 68
2019-04-23 15:00:00 19.1 16 Sur 29 Sur 0 -- -- 69
2019-04-23 14:00:00 18.8 12 Sudoeste 23 Sur 0 -- -- 72
2019-04-23 13:00:00 17 7 Sur 14 Sur 0 -- -- 83
2019-04-23 12:00:00 15.9 5 Oeste 18 Oeste 0 -- -- 90
2019-04-23 11:00:00 16.5 10 Oeste 18 Oeste 0 -- -- 88
2019-04-23 10:00:00 14.4 7 Oeste 18 Noroeste 0 -- -- 96
2019-04-23 09:00:00 13.6 8 Noroeste 20 Noroeste 0 -- -- 97
2019-04-23 08:00:00 13.2 5 Oeste 14 Oeste 0.6 -- -- 98
2019-04-23 07:00:00 13.3 9 Oeste 15 Oeste 0.6 -- -- 97
2019-04-23 06:00:00 13.6 8 Noroeste 21 Noroeste 2.2 -- -- 94
2019-04-23 05:00:00 13.7 12 Norte 23 Norte 1.6 -- -- 93
2019-04-23 04:00:00 14.1 6 Noroeste 14 Nordeste 1.4 -- -- 94
2019-04-23 03:00:00 14.3 6 Norte 16 Nordeste 0 -- -- 95
2019-04-23 02:00:00 14.3 7 Nordeste 21 Nordeste 0 -- -- 94
2019-04-23 01:00:00 14.1 8 Nordeste 26 Nordeste 2.2 -- -- 93
2019-04-23 00:00:00 14.4 8 Nordeste 24 Nordeste 2.2 -- -- 91
2019-04-22 23:00:00 15.1 9 Norte 26 Norte 0 -- -- 82
2019-04-22 22:00:00 15.6 10 Nordeste 23 Norte 0 -- -- 77
2019-04-22 21:00:00 15.3 9 Norte 27 Nordeste 0 -- -- 76
2019-04-22 20:00:00 15.9 14 Nordeste 27 Nordeste 0 -- -- 71
2019-04-22 19:00:00 16.1 14 Nordeste 31 Nordeste 0 -- -- 69
2019-04-22 18:00:00 16.4 14 Nordeste 29 Norte 0 -- -- 66
2019-04-22 17:00:00 16.8 15 Nordeste 34 Nordeste 0 -- -- 65
2019-04-22 16:00:00 17.2 16 Nordeste 34 Nordeste 0 -- -- 66
2019-04-22 15:00:00 17.5 15 Nordeste 36 Nordeste 0 -- -- 63
2019-04-22 14:00:00 16.9 12 Nordeste 33 Nordeste 0 -- -- 63
2019-04-22 13:00:00 16.8 14 Nordeste 41 Nordeste 0 -- -- 66
2019-04-22 12:00:00 16.4 16 Nordeste 36 Nordeste 0 -- -- 71
2019-04-22 11:00:00 16.8 14 Nordeste 33 Nordeste 0 -- -- 69
2019-04-22 10:00:00 16.1 17 Norte 32 Norte 0 -- -- 72
2019-04-22 09:00:00 14.5 8 Nordeste 22 Norte 0.6 -- -- 76
2019-04-22 08:00:00 15.5 11 Norte 36 Nordeste 0 -- -- 66
2019-04-22 07:00:00 15.1 15 Norte 37 Norte 0 -- -- 70
2019-04-22 06:00:00 15 13 Nordeste 30 Norte 0 -- -- 72
2019-04-22 05:00:00 15.2 13 Norte 35 Nordeste 0 -- -- 67
2019-04-22 04:00:00 15.5 15 Nordeste 29 Norte 0 -- -- 65
2019-04-22 03:00:00 15.6 13 Nordeste 27 Nordeste 0 -- -- 66
2019-04-22 02:00:00 15.5 15 Nordeste 42 Norte 0 -- -- 66
2019-04-22 01:00:00 15.3 15 Norte 33 Nordeste 0 -- -- 66
2019-04-22 00:00:00 14.8 10 Norte 26 Norte 0 -- -- 71
2019-04-21 23:00:00 15.2 11 Norte 31 Norte 0 -- -- 69
2019-04-21 22:00:00 15.6 12 Norte 36 Nordeste 0 -- -- 68
2019-04-21 21:00:00 15.6 10 Norte 30 Norte 0 -- -- 71
2019-04-21 20:00:00 16 13 Norte 32 Nordeste 0 -- -- 71
2019-04-21 19:00:00 16.8 16 Nordeste 36 Norte 0 -- -- 67
2019-04-21 18:00:00 17.4 16 Nordeste 34 Nordeste 0 -- -- 66
2019-04-21 17:00:00 17.9 18 Nordeste 40 Nordeste 0 -- -- 62
2019-04-21 16:00:00 17.6 18 Nordeste 40 Nordeste 0 -- -- 63
2019-04-21 15:00:00 17.8 18 Nordeste 36 Este 0 -- -- 59
2019-04-21 14:00:00 17.6 17 Nordeste 38 Nordeste 0 -- -- 56
2019-04-21 13:00:00 17.3 14 Nordeste 29 Nordeste 0 -- -- 59
2019-04-21 12:00:00 16.1 10 Nordeste 28 Nordeste 0 -- -- 64
2019-04-21 11:00:00 15.6 13 Nordeste 31 Nordeste 0 -- -- 67
2019-04-21 10:00:00 15.8 13 Nordeste 33 Nordeste 0 -- -- 71
2019-04-21 09:00:00 15.3 15 Nordeste 33 Norte 0 -- -- 71
2019-04-21 08:00:00 14.7 16 Norte 32 Nordeste 0 -- -- 71
2019-04-21 07:00:00 13.9 15 Norte 34 Noroeste 0 -- -- 71
2019-04-21 06:00:00 14.5 11 Norte 33 Norte 0.2 -- -- 68
2019-04-21 05:00:00 15.2 16 Norte 41 Norte 0 -- -- 62
2019-04-21 04:00:00 14.8 16 Norte 40 Norte 0 -- -- 65
2019-04-21 03:00:00 13.6 11 Norte 31 Noroeste 0 -- -- 70
2019-04-21 02:00:00 13.6 15 Norte 37 Norte 0 -- -- 70
2019-04-21 01:00:00 13.4 17 Norte 46 Noroeste 0 -- -- 72
2019-04-21 00:00:00 13.5 24 Norte 47 Norte 0 -- -- 71
2019-04-20 23:00:00 13.4 18 Norte 39 Noroeste 0 -- -- 74
2019-04-20 22:00:00 13.8 14 Norte 33 Norte 0 -- -- 72
2019-04-20 21:00:00 14.3 10 Norte 32 Nordeste 0 -- -- 70
2019-04-20 20:00:00 14.8 10 Norte 28 Nordeste 0 -- -- 70
2019-04-20 19:00:00 16.1 13 Nordeste 27 Nordeste 0 -- -- 59
2019-04-20 18:00:00 16.3 14 Nordeste 30 Norte 0 -- -- 59
2019-04-20 17:00:00 16.1 15 Nordeste 30 Nordeste 0 -- -- 67
2019-04-20 16:00:00 16.6 15 Norte 30 Nordeste 0 -- -- 64
2019-04-20 15:00:00 17.1 14 Nordeste 33 Norte 0 -- -- 59
2019-04-20 14:00:00 18 12 Nordeste 37 Nordeste 0 -- -- 53
2019-04-20 13:00:00 18.7 14 Nordeste 30 Nordeste 0 -- -- 49
2019-04-20 12:00:00 18.8 13 Nordeste 35 Nordeste 0 -- -- 49
2019-04-20 11:00:00 18.2 14 Nordeste 38 Nordeste 0 -- -- 54
2019-04-20 10:00:00 17.5 19 Nordeste 35 Norte 0 -- -- 58
2019-04-20 09:00:00 16.6 15 Nordeste 31 Norte 0 -- -- 58
2019-04-20 08:00:00 15.3 12 Norte 28 Nordeste 0 -- -- 62
2019-04-20 07:00:00 15 12 Norte 27 Norte 0 -- -- 64
2019-04-20 06:00:00 15.8 11 Norte 32 Nordeste 0 -- -- 57
2019-04-20 05:00:00 16 10 Norte 23 Nordeste 0 -- -- 53
2019-04-20 04:00:00 16.5 12 Norte 33 Nordeste 0 -- -- 51
2019-04-20 03:00:00 16.6 13 Norte 28 Noroeste 0 -- -- 51
2019-04-20 02:00:00 16.6 12 Norte 27 Nordeste 0 -- -- 52
2019-04-20 01:00:00 16.3 10 Norte 30 Norte 0 -- -- 56
2019-04-20 00:00:00 16.3 12 Norte 27 Nordeste 0 -- -- 58
2019-04-19 23:00:00 16.1 10 Nordeste 28 Nordeste 0 -- -- 59
2019-04-19 22:00:00 15.9 12 Norte 27 Nordeste 0 -- -- 61
2019-04-19 21:00:00 16.2 9 Nordeste 24 Nordeste 0 -- -- 61
2019-04-19 20:00:00 16.8 9 Nordeste 29 Nordeste 0 -- -- 61
2019-04-19 19:00:00 17.4 12 Nordeste 33 Este 0 -- -- 59
2019-04-19 18:00:00 17.5 15 Nordeste 34 Nordeste 0 -- -- 62
2019-04-19 17:00:00 18.1 18 Este 36 Este 0 -- -- 62
2019-04-19 16:00:00 18.7 21 Este 48 Este 0 -- -- 56
2019-04-19 15:00:00 19.2 17 Nordeste 35 Nordeste 0 -- -- 51
2019-04-19 14:00:00 19.2 16 Nordeste 37 Este 0 -- -- 58
2019-04-19 13:00:00 18.3 17 Nordeste 38 Nordeste 0 -- -- 60
2019-04-19 12:00:00 18.2 17 Nordeste 35 Nordeste 0 -- -- 64
2019-04-19 11:00:00 17.1 12 Nordeste 26 Norte 0 -- -- 67
2019-04-19 10:00:00 15.8 9 Nordeste 26 Norte 0 -- -- 72
2019-04-19 09:00:00 14.7 12 Norte 23 Nordeste 0 -- -- 78
2019-04-19 08:00:00 14 12 Nordeste 26 Norte 0 -- -- 81
2019-04-19 07:00:00 14 11 Norte 28 Norte 0 -- -- 80
2019-04-19 06:00:00 14.3 9 Norte 30 Norte 0 -- -- 76
2019-04-19 05:00:00 15 14 Nordeste 29 Norte 0 -- -- 68
2019-04-19 04:00:00 15.1 10 Norte 26 Norte 0 -- -- 67
2019-04-19 03:00:00 15.1 9 Nordeste 26 Norte 0 -- -- 68
2019-04-19 02:00:00 15.2 10 Nordeste 28 Nordeste 0 -- -- 69
2019-04-19 01:00:00 15 10 Nordeste 21 Nordeste 0 -- -- 71
2019-04-19 00:00:00 14.8 8 Nordeste 30 Nordeste 0 -- -- 74
2019-04-18 23:00:00 14.5 8 Nordeste 26 Nordeste 0 -- -- 76
2019-04-18 22:00:00 14.5 11 Nordeste 29 Nordeste 0 -- -- 79
2019-04-18 21:00:00 15.2 12 Nordeste 29 Norte 0 -- -- 71
2019-04-18 20:00:00 15.3 10 Nordeste 23 Nordeste 0 -- -- 75
2019-04-18 19:00:00 16.1 10 Nordeste 29 Este 0 -- -- 72
2019-04-18 18:00:00 16.4 14 Nordeste 33 Este 0 -- -- 71
2019-04-18 17:00:00 16.5 12 Nordeste 29 Nordeste 0 -- -- 71
2019-04-18 16:00:00 16.9 11 Nordeste 23 Este 0 -- -- 71
2019-04-18 15:00:00 16.6 12 Nordeste 24 Este 0 -- -- 69
2019-04-18 14:00:00 16.6 14 Este 30 Este 0 -- -- 70
2019-04-18 13:00:00 17.5 13 Este 24 Nordeste 0 -- -- 68
2019-04-18 12:00:00 16.6 13 Este 23 Nordeste 0 -- -- 72
2019-04-18 11:00:00 16 12 Nordeste 18 Este 0 -- -- 73
2019-04-18 10:00:00 14.9 9 Nordeste 16 Nordeste 0 -- -- 80
2019-04-18 09:00:00 13.9 8 Nordeste 21 Nordeste 0 -- -- 86
2019-04-18 08:00:00 11.8 5 Norte 11 Norte 0 -- -- 97
2019-04-18 07:00:00 11.1 3 Oeste 7 Oeste 0 -- -- 94
2019-04-18 06:00:00 11.4 3 Oeste 7 Oeste 0 -- -- 95
2019-04-18 05:00:00 11.4 4 Oeste 7 Oeste 0 -- -- 96
2019-04-18 04:00:00 11.7 2 Sudoeste 6 Oeste 0 -- -- 93
2019-04-18 03:00:00 12.7 0 Calma 4 Este 0 -- -- 94
2019-04-18 02:00:00 13.2 0 Calma 2 Este 0 -- -- 94
2019-04-18 01:00:00 13.3 0 Calma 4 Este 0 -- -- 92
2019-04-18 00:00:00 14 2 Este 8 Sudeste 0 -- -- 89
2019-04-17 23:00:00 14.1 3 Sudeste 9 Sudeste 0 -- -- 90
2019-04-17 22:00:00 14.3 5 Este 15 Sudeste 0 -- -- 91
2019-04-17 21:00:00 14.5 6 Este 16 Sudeste 0 -- -- 90
2019-04-17 20:00:00 14.8 6 Sudeste 17 Sudeste 0 -- -- 88
2019-04-17 19:00:00 15.2 8 Sudeste 20 Sur 0 -- -- 86
2019-04-17 18:00:00 15.9 9 Sur 22 Sur 0 -- -- 81
2019-04-17 17:00:00 15.7 10 Sur 22 Sudeste 0 -- -- 81
2019-04-17 16:00:00 16.2 13 Sur 23 Sudeste 0 -- -- 77
2019-04-17 15:00:00 16.7 14 Sur 23 Sudoeste 0 -- -- 74
2019-04-17 14:00:00 17 9 Sur 22 Sur 0 -- -- 71
2019-04-17 13:00:00 16.8 12 Sur 21 Sudeste 0 -- -- 75
2019-04-17 12:00:00 15.6 10 Sur 19 Sudeste 0 -- -- 79
2019-04-17 11:00:00 15 8 Sur 20 Sur 0 -- -- 79
2019-04-17 10:00:00 15 7 Sur 15 Sudeste 0 -- -- 80
2019-04-17 09:00:00 9.1 4 Oeste 9 Oeste 0 -- -- 94
2019-04-17 08:00:00 6.9 6 Oeste 9 Oeste 0 -- -- 95
2019-04-17 07:00:00 6 6 Oeste 12 Oeste 0 -- -- 96
2019-04-17 06:00:00 6.6 6 Oeste 13 Oeste 0 -- -- 96
2019-04-17 05:00:00 7 7 Oeste 12 Sudoeste 0 -- -- 96
2019-04-17 04:00:00 7.4 5 Oeste 12 Sudoeste 0 -- -- 95
2019-04-17 03:00:00 7.8 7 Oeste 11 Oeste 0 -- -- 94
2019-04-17 02:00:00 8.7 5 Oeste 9 Oeste 0 -- -- 94
2019-04-17 01:00:00 9.5 5 Oeste 10 Sur 0 -- -- 93
2019-04-17 00:00:00 10.5 3 Oeste 8 Oeste 0 -- -- 91
2019-04-16 23:00:00 11.9 2 Sur 7 Este 0 -- -- 87
2019-04-16 22:00:00 13.2 3 Nordeste 11 Este 0 -- -- 85
2019-04-16 21:00:00 13.4 5 Este 13 Este 0 -- -- 84
2019-04-16 20:00:00 13.6 6 Este 18 Sudeste 0 -- -- 83
2019-04-16 19:00:00 13.9 9 Este 24 Este 0 -- -- 82
2019-04-16 18:00:00 14.5 12 Este 27 Este 0 -- -- 79
2019-04-16 17:00:00 16.1 10 Nordeste 22 Este 0 -- -- 73
2019-04-16 16:00:00 16.6 8 Este 15 Este 0 -- -- 72
2019-04-16 15:00:00 15.2 6 Este 13 Este 0 -- -- 77
2019-04-16 14:00:00 14.7 5 Este 14 Este 0 -- -- 78
2019-04-16 13:00:00 14.4 9 Este 17 Este 0.2 -- -- 79
2019-04-16 12:00:00 15 7 Sudeste 14 Este 0 -- -- 73
2019-04-16 11:00:00 15.6 6 Este 11 Nordeste 0 -- -- 69
2019-04-16 10:00:00 12.6 5 Oeste 13 Oeste 0 -- -- 89
2019-04-16 09:00:00 11 5 Oeste 16 Oeste 0 -- -- 94
2019-04-16 08:00:00 10.2 7 Oeste 16 Oeste 0 -- -- 94
2019-04-16 07:00:00 10.2 5 Sudoeste 12 Oeste 0 -- -- 95
2019-04-16 06:00:00 10.3 5 Oeste 13 Oeste 0 -- -- 95
2019-04-16 05:00:00 10.4 6 Sudoeste 13 Oeste 0 -- -- 94
2019-04-16 04:00:00 10.8 2 Oeste 7 Sudoeste 0 -- -- 92
2019-04-16 03:00:00 11.6 3 Sudoeste 8 Oeste 0.2 -- -- 90
2019-04-16 02:00:00 11.8 3 Oeste 9 Oeste 0 -- -- 87
2019-04-16 01:00:00 11.6 2 Sur 6 Norte 0 -- -- 86
2019-04-16 00:00:00 12.4 3 Norte 9 Nordeste 0 -- -- 83
2019-04-15 23:00:00 12.4 0 Calma 5 Nordeste 0 -- -- 80
2019-04-15 22:00:00 12.7 0 Calma 7 Sudeste 0 -- -- 77
2019-04-15 21:00:00 12.9 2 Sudeste 14 Sudeste 0 -- -- 72
2019-04-15 20:00:00 13.3 6 Sudeste 14 Sudeste 0 -- -- 63
2019-04-15 19:00:00 13.7 8 Sur 16 Sudeste 0 -- -- 58
2019-04-15 18:00:00 14.3 8 Sur 15 Sur 0 -- -- 52
2019-04-15 17:00:00 14.2 8 Sudeste 18 Sudeste 0 -- -- 52
2019-04-15 16:00:00 14.8 9 Sur 19 Sur 0 -- -- 46
2019-04-15 15:00:00 16 8 Sur 20 Sur 0 -- -- 49
2019-04-15 14:00:00 14.9 10 Sudeste 22 Sudeste 0 -- -- 57
2019-04-15 13:00:00 14.3 11 Este 22 Este 0 -- -- 55
2019-04-15 12:00:00 14.4 11 Este 22 Este 0 -- -- 58
2019-04-15 11:00:00 14.3 9 Este 19 Este 0 -- -- 60
2019-04-15 10:00:00 13.4 7 Nordeste 15 Nordeste 0 -- -- 59
2019-04-15 09:00:00 10 6 Oeste 11 Oeste 0 -- -- 78
2019-04-15 08:00:00 6.5 7 Oeste 17 Oeste 0 -- -- 87
2019-04-15 07:00:00 5.5 5 Oeste 9 Oeste 0 -- -- 90
2019-04-15 06:00:00 5.8 4 Noroeste 12 Sudoeste 0 -- -- 89
2019-04-15 05:00:00 6.2 3 Oeste 10 Oeste 0 -- -- 86
2019-04-15 04:00:00 7.2 5 Oeste 9 Oeste 0 -- -- 83
2019-04-15 03:00:00 8.5 5 Sudoeste 8 Norte 0 -- -- 77
2019-04-15 02:00:00 10 5 Norte 14 Nordeste 0 -- -- 70
2019-04-15 01:00:00 8.6 5 Oeste 13 Oeste 0 -- -- 76
2019-04-15 00:00:00 8.6 6 Oeste 12 Oeste 0 -- -- 79
2019-04-14 23:00:00 9.5 5 Oeste 8 Oeste 0 -- -- 83
2019-04-14 22:00:00 10.9 3 Noroeste 5 Oeste 0 -- -- 80
2019-04-14 21:00:00 12.6 3 Oeste 6 Noroeste 0 -- -- 74
2019-04-14 20:00:00 14.1 0 Calma 10 Sudeste 0 -- -- 67
2019-04-14 19:00:00 14.1 5 Sudeste 15 Sudeste 0 -- -- 65
2019-04-14 18:00:00 14.7 9 Sur 15 Sudeste 0 -- -- 63
2019-04-14 17:00:00 14.8 7 Sudeste 13 Sudeste 0 -- -- 61
2019-04-14 16:00:00 14 6 Este 15 Nordeste 0 -- -- 63
2019-04-14 15:00:00 14 9 Este 22 Nordeste 0 -- -- 62
2019-04-14 14:00:00 14.1 12 Este 24 Este 0 -- -- 62
2019-04-14 13:00:00 14.3 12 Este 26 Este 0 -- -- 62
2019-04-14 12:00:00 14.7 12 Este 24 Este 0 -- -- 63
2019-04-14 11:00:00 13.9 10 Este 20 Este 0 -- -- 69
2019-04-14 10:00:00 12.8 7 Este 20 Este 0 -- -- 77
2019-04-14 09:00:00 9.3 5 Oeste 13 Oeste 0 -- -- 86
2019-04-14 08:00:00 6 7 Oeste 13 Sudoeste 0 -- -- 94
2019-04-14 07:00:00 6.1 5 Oeste 12 Oeste 0 -- -- 93
2019-04-14 06:00:00 6.6 5 Oeste 12 Oeste 0 -- -- 90
2019-04-14 05:00:00 7 5 Oeste 13 Oeste 0 -- -- 89
2019-04-14 04:00:00 6.8 7 Oeste 11 Oeste 0 -- -- 87
2019-04-14 03:00:00 7.5 5 Oeste 15 Oeste 0 -- -- 85
2019-04-14 02:00:00 7.8 6 Oeste 15 Oeste 0 -- -- 84
2019-04-14 01:00:00 8.6 6 Oeste 13 Oeste 0 -- -- 81
2019-04-14 00:00:00 9.7 6 Sudoeste 11 Sudoeste 0 -- -- 82
2019-04-13 23:00:00 10.3 4 Sudoeste 11 Oeste 0 -- -- 82
2019-04-13 22:00:00 11.3 3 Sudoeste 8 Oeste 0 -- -- 83
2019-04-13 21:00:00 13.2 3 Sur 8 Oeste 0 -- -- 79
2019-04-13 20:00:00 14.9 5 Sur 23 Sudoeste 0 -- -- 77
2019-04-13 19:00:00 15.3 15 Sur 27 Sur 0 -- -- 78
2019-04-13 18:00:00 15.8 15 Sur 32 Sur 0 -- -- 74
2019-04-13 17:00:00 16.9 14 Sudoeste 31 Sudoeste 0 -- -- 65
2019-04-13 16:00:00 16.4 13 Sur 24 Sudeste 0 -- -- 65
2019-04-13 15:00:00 16.8 12 Sudeste 21 Sudeste 0 -- -- 61
2019-04-13 14:00:00 17.3 7 Sudeste 18 Sudeste 0 -- -- 56
2019-04-13 13:00:00 16.8 9 Sudeste 19 Sudeste 0 -- -- 52
2019-04-13 12:00:00 16.5 9 Sudeste 18 Sudeste 0 -- -- 44
2019-04-13 11:00:00 15.9 10 Este 17 Este 0 -- -- 44
2019-04-13 10:00:00 13 5 Oeste 15 Oeste 0 -- -- 73
2019-04-13 09:00:00 9 8 Oeste 17 Oeste 0 -- -- 89
2019-04-13 08:00:00 5.4 7 Oeste 17 Oeste 0 -- -- 95
2019-04-13 07:00:00 5.6 6 Oeste 14 Oeste 0 -- -- 95
2019-04-13 06:00:00 6.1 8 Oeste 14 Oeste 0 -- -- 95
2019-04-13 05:00:00 6.1 6 Oeste 13 Oeste 0 -- -- 94
2019-04-13 04:00:00 6.7 6 Oeste 13 Oeste 0 -- -- 93
2019-04-13 03:00:00 7.6 6 Oeste 13 Oeste 0 -- -- 92
2019-04-13 02:00:00 8.2 5 Oeste 12 Sudoeste 0 -- -- 90
2019-04-13 01:00:00 9.3 6 Oeste 11 Noroeste 0 -- -- 88
2019-04-13 00:00:00 9.5 6 Oeste 11 Oeste 0 -- -- 85
2019-04-12 23:00:00 10.1 4 Sudoeste 10 Sudoeste 0 -- -- 81
2019-04-12 22:00:00 11.3 3 Sudoeste 6 Oeste 0 -- -- 75
2019-04-12 21:00:00 13.1 0 Calma 12 Sudoeste 0 -- -- 67
2019-04-12 20:00:00 15.2 5 Sudoeste 23 Sudoeste 0 -- -- 58
2019-04-12 19:00:00 16.1 13 Sur 30 Sudoeste 0 -- -- 56
2019-04-12 18:00:00 17 15 Sur 33 Sudoeste 0 -- -- 51
2019-04-12 17:00:00 17.5 18 Sur 32 Sudoeste 0 -- -- 49
2019-04-12 16:00:00 18.3 13 Sur 30 Sur 0 -- -- 46
2019-04-12 15:00:00 18.4 14 Sur 24 Sur 0 -- -- 44
2019-04-12 14:00:00 18.5 15 Sur 26 Sur 0 -- -- 44
2019-04-12 13:00:00 18.9 11 Sur 21 Sur 0 -- -- 43
2019-04-12 12:00:00 17.9 7 Sudeste 23 Sudeste 0 -- -- 46
2019-04-12 11:00:00 17 2 Sudoeste 9 Noroeste 0 -- -- 45
2019-04-12 10:00:00 15.2 4 Sudoeste 8 Sudoeste 0 -- -- 52
2019-04-12 09:00:00 13.4 4 Sudoeste 10 Oeste 0 -- -- 65
2019-04-12 08:00:00 11.9 5 Oeste 13 Sudoeste 0 -- -- 66
2019-04-12 07:00:00 13 5 Noroeste 25 Noroeste 0 -- -- 56
2019-04-12 06:00:00 13.3 11 Norte 27 Norte 0 -- -- 56
2019-04-12 05:00:00 13.7 12 Norte 31 Norte 0 -- -- 57
2019-04-12 04:00:00 14.3 14 Norte 30 Nordeste 0 -- -- 55
2019-04-12 03:00:00 13.1 9 Noroeste 25 Noroeste 0 -- -- 62
2019-04-12 02:00:00 11.9 6 Oeste 26 Oeste 0 -- -- 73
2019-04-12 01:00:00 11.8 4 Oeste 16 Oeste 0 -- -- 78
2019-04-12 00:00:00 11.7 10 Oeste 20 Oeste 0 -- -- 79
2019-04-11 23:00:00 11.4 5 Oeste 10 Oeste 0 -- -- 90
2019-04-11 22:00:00 12.2 4 Oeste 7 Oeste 0 -- -- 88
2019-04-11 21:00:00 13.1 0 Calma 6 Oeste 0.2 -- -- 85
2019-04-11 20:00:00 14.4 0 Calma 6 Oeste 0 -- -- 75
2019-04-11 19:00:00 15 3 Noroeste 14 Sur 0 -- -- 63
2019-04-11 18:00:00 15.5 6 Sur 11 Sur 0 -- -- 59
2019-04-11 17:00:00 15.7 6 Sudoeste 18 Sudoeste 0 -- -- 65
2019-04-11 16:00:00 16.6 8 Sur 15 Sur 0 -- -- 58
2019-04-11 15:00:00 16.2 7 Sur 22 Sur 0 -- -- 61
2019-04-11 14:00:00 17.2 10 Sudeste 19 Sudeste 0 -- -- 56
2019-04-11 13:00:00 16.9 11 Norte 23 Oeste 0 -- -- 45
2019-04-11 12:00:00 17.2 5 Oeste 18 Oeste 0 -- -- 47
2019-04-11 11:00:00 16.6 7 Oeste 16 Oeste 0 -- -- 49
2019-04-11 10:00:00 15.4 10 Oeste 16 Oeste 0 -- -- 55
2019-04-11 09:00:00 11.7 5 Oeste 9 Sudoeste 0 -- -- 75
2019-04-11 08:00:00 8.2 4 Sudoeste 13 Sudoeste 0 -- -- 87
2019-04-11 07:00:00 7.5 6 Oeste 13 Oeste 0 -- -- 88
2019-04-11 06:00:00 7.7 6 Oeste 13 Oeste 0 -- -- 88
2019-04-11 05:00:00 8.2 6 Oeste 16 Sudoeste 0 -- -- 87
2019-04-11 04:00:00 9 8 Oeste 15 Oeste 0 -- -- 84
2019-04-11 03:00:00 10 8 Oeste 21 Oeste 0 -- -- 81
2019-04-11 02:00:00 10.1 9 Oeste 17 Oeste 0 -- -- 81
2019-04-11 01:00:00 11.1 8 Oeste 21 Oeste 0 -- -- 78
2019-04-11 00:00:00 10.8 9 Oeste 17 Oeste 0 -- -- 78
2019-04-10 23:00:00 11.5 6 Oeste 11 Oeste 0 -- -- 74
2019-04-10 22:00:00 13 6 Oeste 19 Oeste 0 -- -- 67
2019-04-10 21:00:00 14 8 Noroeste 23 Noroeste 0 -- -- 64
2019-04-10 20:00:00 15.7 11 Noroeste 24 Noroeste 0 -- -- 58
2019-04-10 19:00:00 17.3 13 Noroeste 22 Oeste 0 -- -- 55
2019-04-10 18:00:00 17.5 14 Oeste 29 Oeste 0 -- -- 51
2019-04-10 17:00:00 16.7 8 Oeste 17 Sudoeste 0 -- -- 59
2019-04-10 16:00:00 16.5 3 Oeste 13 Sudoeste 0 -- -- 60
2019-04-10 15:00:00 15.1 9 Sur 26 Sudoeste 0 -- -- 71
2019-04-10 14:00:00 14.2 4 Noroeste 23 Sudoeste 1 -- -- 76
2019-04-10 13:00:00 16.9 14 Sur 23 Sur 0 -- -- 52
2019-04-10 12:00:00 17.2 7 Oeste 19 Oeste 0 -- -- 54
2019-04-10 11:00:00 13.8 11 Oeste 25 Oeste 0 -- -- 64
2019-04-10 10:00:00 11.5 8 Oeste 21 Oeste 0 -- -- 79
2019-04-10 09:00:00 8.1 7 Oeste 14 Oeste 0 -- -- 92
2019-04-10 08:00:00 6 7 Oeste 13 Oeste 0 -- -- 95
2019-04-10 07:00:00 5.7 7 Oeste 13 Oeste 0 -- -- 95
2019-04-10 06:00:00 6.3 6 Oeste 14 Oeste 0 -- -- 94
2019-04-10 05:00:00 7 7 Oeste 14 Oeste 0 -- -- 94
2019-04-10 04:00:00 7.8 6 Oeste 12 Oeste 0 -- -- 94
2019-04-10 03:00:00 8.1 7 Oeste 14 Oeste 0 -- -- 93
2019-04-10 02:00:00 8.2 7 Oeste 15 Sudoeste 0 -- -- 93
2019-04-10 01:00:00 8.4 9 Oeste 17 Oeste 0 -- -- 92
2019-04-10 00:00:00 9.4 10 Oeste 24 Oeste 0 -- -- 89
2019-04-09 23:00:00 9.7 15 Oeste 25 Oeste 0 -- -- 88
2019-04-09 22:00:00 9.8 12 Oeste 23 Oeste 0 -- -- 88
2019-04-09 21:00:00 10.5 10 Oeste 25 Oeste 0 -- -- 82
2019-04-09 20:00:00 11.1 9 Oeste 28 Noroeste 0 -- -- 79
2019-04-09 19:00:00 11.2 19 Noroeste 32 Noroeste 0 -- -- 84
2019-04-09 18:00:00 13.4 12 Oeste 24 Oeste 0 -- -- 79
2019-04-09 17:00:00 14 4 Sudoeste 15 Sur 0 -- -- 78
2019-04-09 16:00:00 14.5 9 Sur 22 Sur 0 -- -- 79
2019-04-09 15:00:00 15.6 9 Sudeste 17 Sudeste 0 -- -- 67
2019-04-09 14:00:00 14.3 5 Este 15 Este 0 -- -- 78
2019-04-09 13:00:00 14.5 9 Este 17 Este 0 -- -- 78
2019-04-09 12:00:00 13.7 6 Este 13 Este 0 -- -- 80
2019-04-09 11:00:00 13.4 4 Este 13 Este 0 -- -- 82
2019-04-09 10:00:00 11.7 2 Sudoeste 8 Oeste 0.2 -- -- 93
2019-04-09 09:00:00 10.5 5 Este 15 Oeste 2.2 -- -- 96
2019-04-09 08:00:00 10.4 3 Nordeste 17 Oeste 1.2 -- -- 95
2019-04-09 07:00:00 9.8 5 Oeste 15 Sudoeste 0 -- -- 94
2019-04-09 06:00:00 9.6 4 Oeste 11 Oeste 0 -- -- 93
2019-04-09 05:00:00 10 5 Oeste 12 Oeste 0 -- -- 93
2019-04-09 04:00:00 10.8 2 Noroeste 12 Oeste 0 -- -- 92
2019-04-09 03:00:00 10.9 4 Oeste 10 Noroeste 0 -- -- 89
2019-04-09 02:00:00 12.1 6 Oeste 14 Oeste 0 -- -- 88
2019-04-09 01:00:00 12.2 7 Oeste 15 Oeste 0.2 -- -- 89
2019-04-09 00:00:00 12.1 4 Oeste 8 Oeste 0 -- -- 84
2019-04-08 23:00:00 12.3 4 Oeste 9 Oeste 0 -- -- 83
2019-04-08 22:00:00 12.4 3 Oeste 7 Oeste 0 -- -- 83
2019-04-08 21:00:00 12.9 0 Calma 5 Este 0 -- -- 81
2019-04-08 20:00:00 14.2 2 Este 13 Sur 0 -- -- 75
2019-04-08 19:00:00 15.2 6 Sudeste 16 Sudeste 0 -- -- 69
2019-04-08 18:00:00 16.1 6 Sudeste 19 Sudeste 0 -- -- 72
2019-04-08 17:00:00 16 12 Sudeste 22 Sudeste 0 -- -- 66
2019-04-08 16:00:00 17.1 13 Sur 30 Sur 0 -- -- 63
2019-04-08 15:00:00 17.1 21 Sur 31 Sur 0 -- -- 59
2019-04-08 14:00:00 17.3 17 Sur 34 Sur 0 -- -- 52
2019-04-08 13:00:00 16.9 17 Sur 30 Sur 0 -- -- 57
2019-04-08 12:00:00 16.1 9 Sudeste 18 Sur 0 -- -- 59
2019-04-08 11:00:00 15.8 4 Sudoeste 12 Oeste 0 -- -- 54
2019-04-08 10:00:00 12.1 6 Sudoeste 12 Oeste 0 -- -- 73
2019-04-08 09:00:00 8.1 7 Sudoeste 15 Sudoeste 0 -- -- 88
2019-04-08 08:00:00 5.4 5 Oeste 12 Sudoeste 0 -- -- 92
2019-04-08 07:00:00 5.2 7 Oeste 15 Oeste 0 -- -- 91
2019-04-08 06:00:00 5.1 6 Oeste 15 Oeste 0 -- -- 93
2019-04-08 05:00:00 5 6 Oeste 15 Oeste 0 -- -- 92
2019-04-08 04:00:00 5.5 7 Oeste 13 Oeste 0 -- -- 91
2019-04-08 03:00:00 6.5 5 Oeste 13 Oeste 0 -- -- 88
2019-04-08 02:00:00 7.4 9 Oeste 14 Oeste 0 -- -- 89
2019-04-08 01:00:00 7.5 8 Oeste 18 Oeste 0 -- -- 89
2019-04-08 00:00:00 8.4 7 Oeste 14 Oeste 0 -- -- 87
2019-04-07 23:00:00 10.1 7 Oeste 20 Noroeste 0 -- -- 81
2019-04-07 22:00:00 11.1 8 Oeste 19 Noroeste 0 -- -- 77
2019-04-07 21:00:00 11.9 5 Oeste 15 Noroeste 0 -- -- 72
2019-04-07 20:00:00 13.1 8 Oeste 19 Noroeste 0 -- -- 64
2019-04-07 19:00:00 13.8 9 Oeste 15 Oeste 0 -- -- 60
2019-04-07 18:00:00 13.4 6 Sur 17 Sudoeste 0 -- -- 62
2019-04-07 17:00:00 14.1 8 Este 27 Nordeste 0 -- -- 61
2019-04-07 16:00:00 15.9 13 Nordeste 32 Nordeste 0 -- -- 57
2019-04-07 15:00:00 16.2 17 Nordeste 40 Nordeste 0 -- -- 59
2019-04-07 14:00:00 16.4 15 Nordeste 33 Este 0 -- -- 52
2019-04-07 13:00:00 16.4 13 Norte 28 Nordeste 0 -- -- 50
2019-04-07 12:00:00 15.2 17 Norte 36 Norte 0 -- -- 56
2019-04-07 11:00:00 13.6 16 Norte 31 Noroeste 0 -- -- 58
2019-04-07 10:00:00 9.8 5 Sudoeste 15 Oeste 0 -- -- 78
2019-04-07 09:00:00 7.1 10 Oeste 18 Oeste 0 -- -- 83
2019-04-07 08:00:00 4 9 Oeste 15 Oeste 0 -- -- 91
2019-04-07 07:00:00 4.4 6 Oeste 13 Oeste 0 -- -- 92
2019-04-07 06:00:00 4.9 7 Oeste 14 Oeste 0 -- -- 92
2019-04-07 05:00:00 5.2 6 Oeste 12 Oeste 0 -- -- 91
2019-04-07 04:00:00 5.7 8 Oeste 17 Oeste 0 -- -- 91
2019-04-07 03:00:00 6 7 Oeste 16 Oeste 0 -- -- 90
2019-04-07 02:00:00 6.4 5 Oeste 12 Oeste 0 -- -- 87
2019-04-07 01:00:00 7.5 4 Oeste 9 Oeste 0 -- -- 85
2019-04-07 00:00:00 8.5 4 Sudoeste 10 Oeste 0 -- -- 82
2019-04-06 23:00:00 10.5 2 Sudoeste 15 Sudoeste 0 -- -- 76
2019-04-06 22:00:00 12.4 4 Sudoeste 24 Sudoeste 0 -- -- 70
2019-04-06 21:00:00 13 14 Sudoeste 35 Sudoeste 0 -- -- 66
2019-04-06 20:00:00 13.5 16 Sur 36 Sur 0 -- -- 61
2019-04-06 19:00:00 14.7 16 Sudoeste 37 Sur 0 -- -- 54
2019-04-06 18:00:00 15.2 19 Sur 42 Sudoeste 0 -- -- 57
2019-04-06 17:00:00 15.8 19 Sudoeste 39 Sur 0 -- -- 56
2019-04-06 16:00:00 15.9 21 Sur 41 Sur 0 -- -- 55
2019-04-06 15:00:00 16 19 Sudoeste 41 Sur 0 -- -- 56
2019-04-06 14:00:00 16 9 Oeste 23 Oeste 0 -- -- 50
2019-04-06 13:00:00 15 12 Oeste 31 Oeste 0 -- -- 51
2019-04-06 12:00:00 14.8 12 Oeste 26 Oeste 0 -- -- 59
2019-04-06 11:00:00 13.1 13 Oeste 26 Noroeste 0 -- -- 67
2019-04-06 10:00:00 13.2 8 Sudoeste 22 Sur 0 -- -- 67
2019-04-06 09:00:00 10.8 0 Calma 6 Oeste 0 -- -- 82
2019-04-06 08:00:00 8.4 2 Sudoeste 6 Noroeste 0 -- -- 91
2019-04-06 07:00:00 10.6 6 Oeste 24 Oeste 0 -- -- 82
2019-04-06 06:00:00 11.2 4 Sudoeste 20 Sudoeste 0 -- -- 79
2019-04-06 05:00:00 11.2 5 Sudoeste 26 Sudoeste 0 -- -- 85
2019-04-06 04:00:00 11.5 8 Sudoeste 28 Sudoeste 0 -- -- 84
2019-04-06 03:00:00 12.9 12 Sudoeste 29 Sudoeste 0 -- -- 86
2019-04-06 02:00:00 13.8 12 Sudeste 27 Sudeste 0 -- -- 91
2019-04-06 01:00:00 13.7 12 Sudeste 32 Sudeste 0 -- -- 92
2019-04-06 00:00:00 12.4 3 Nordeste 24 Sudeste 1.4 -- -- 92
2019-04-05 23:00:00 13.2 9 Sudeste 29 Sur 1 -- -- 93
2019-04-05 22:00:00 14 6 Sudeste 14 Sudeste 0 -- -- 87
2019-04-05 21:00:00 14 8 Sudeste 22 Sudeste 0 -- -- 82
2019-04-05 20:00:00 14 6 Sudeste 19 Sudeste 0 -- -- 73
2019-04-05 19:00:00 14.5 7 Sur 29 Sudoeste 0 -- -- 65
2019-04-05 18:00:00 15.4 13 Sudoeste 32 Sudoeste 0 -- -- 70
2019-04-05 17:00:00 15.7 13 Sur 32 Sudoeste 0 -- -- 70
2019-04-05 16:00:00 15.1 15 Sur 35 Sudoeste 0 -- -- 71
2019-04-05 15:00:00 15.4 14 Sur 29 Sudoeste 0 -- -- 70
2019-04-05 14:00:00 16.2 11 Sudoeste 27 Sudoeste 0 -- -- 64
2019-04-05 13:00:00 16.7 13 Sudoeste 32 Sur 0 -- -- 64
2019-04-05 12:00:00 15.9 16 Sur 34 Sudeste 0 -- -- 63
2019-04-05 11:00:00 15.3 17 Sur 35 Sur 0 -- -- 61
2019-04-05 10:00:00 13.1 12 Sudoeste 29 Sur 0 -- -- 70
2019-04-05 09:00:00 7.1 3 Oeste 10 Oeste 0 -- -- 86
2019-04-05 08:00:00 3.2 5 Noroeste 10 Oeste 0 -- -- 93
2019-04-05 07:00:00 2.9 5 Oeste 14 Oeste 0 -- -- 91
2019-04-05 06:00:00 2.9 7 Oeste 19 Oeste 0 -- -- 92
2019-04-05 05:00:00 3.3 7 Sudoeste 19 Oeste 0 -- -- 91
2019-04-05 04:00:00 3.6 6 Oeste 15 Oeste 0 -- -- 92
2019-04-05 03:00:00 3.6 6 Sudoeste 15 Oeste 0 -- -- 91
2019-04-05 02:00:00 3.5 7 Oeste 16 Oeste 0 -- -- 90
2019-04-05 01:00:00 4.1 6 Oeste 14 Oeste 0 -- -- 89
2019-04-05 00:00:00 4.9 7 Oeste 13 Oeste 0 -- -- 87
2019-04-04 23:00:00 6 6 Oeste 10 Oeste 0 -- -- 84
2019-04-04 22:00:00 7.7 5 Oeste 8 Oeste 0 -- -- 78
2019-04-04 21:00:00 10.1 4 Sur 14 Sur 0 -- -- 68
2019-04-04 20:00:00 10.9 6 Sur 20 Sur 0 -- -- 64
2019-04-04 19:00:00 11.3 10 Sur 24 Sudoeste 0 -- -- 65
2019-04-04 18:00:00 12.1 10 Sur 23 Sur 0 -- -- 60
2019-04-04 17:00:00 12.9 11 Sur 23 Sur 0 -- -- 57
2019-04-04 16:00:00 12.9 11 Sudeste 23 Sur 0 -- -- 56
2019-04-04 15:00:00 12.9 8 Sur 22 Sudeste 0 -- -- 60
2019-04-04 14:00:00 12.4 9 Sudeste 22 Este 0 -- -- 58
2019-04-04 13:00:00 12.3 10 Sudeste 20 Sudeste 0 -- -- 55
2019-04-04 12:00:00 11.5 4 Norte 11 Oeste 0 -- -- 65
2019-04-04 11:00:00 9.2 8 Oeste 17 Oeste 0 -- -- 76
2019-04-04 10:00:00 7 9 Oeste 14 Oeste 0 -- -- 88
2019-04-04 09:00:00 4.7 7 Oeste 15 Oeste 0 -- -- 98
2019-04-04 08:00:00 2.6 4 Sudoeste 12 Sudoeste 0 -- -- 97
2019-04-04 07:00:00 3.2 6 Sudoeste 12 Sudoeste 0 -- -- 97
2019-04-04 06:00:00 4.2 4 Oeste 13 Oeste 0 -- -- 96
2019-04-04 05:00:00 5 6 Oeste 14 Oeste 0 -- -- 96
2019-04-04 04:00:00 5.4 5 Oeste 16 Oeste 0 -- -- 94
2019-04-04 03:00:00 6.2 6 Oeste 12 Oeste 0 -- -- 94
2019-04-04 02:00:00 6.5 7 Oeste 15 Este 0 -- -- 93
2019-04-04 01:00:00 6.5 8 Este 26 Nordeste 0 -- -- 90
2019-04-04 00:00:00 6.7 6 Nordeste 39 Nordeste 1.2 -- -- 89
2019-04-03 23:00:00 7 16 Norte 33 Norte 1.2 -- -- 88
2019-04-03 22:00:00 7.3 17 Norte 37 Norte 1.8 -- -- 87
2019-04-03 21:00:00 7.8 17 Norte 36 Norte 1.6 -- -- 90
2019-04-03 20:00:00 9 13 Nordeste 30 Nordeste 1.6 -- -- 90
2019-04-03 19:00:00 10.3 7 Este 27 Nordeste 0.2 -- -- 87
2019-04-03 18:00:00 10.8 10 Nordeste 30 Este 0.2 -- -- 88
2019-04-03 17:00:00 12 13 Nordeste 29 Este 0 -- -- 83
2019-04-03 16:00:00 13.4 11 Nordeste 28 Nordeste 0 -- -- 80
2019-04-03 15:00:00 16.4 12 Sur 32 Sur 0 -- -- 78
2019-04-03 14:00:00 16.1 8 Sur 30 Sudoeste 0 -- -- 82
2019-04-03 13:00:00 17.1 10 Sur 30 Sudoeste 0 -- -- 78
2019-04-03 12:00:00 17.2 10 Sudoeste 27 Sur 0 -- -- 77
2019-04-03 11:00:00 14.2 7 Sur 17 Sur 0 -- -- 94
2019-04-03 10:00:00 12 4 Este 8 Este 0 -- -- 100
2019-04-03 09:00:00 9.9 3 Oeste 12 Oeste 0.2 -- -- 98
2019-04-03 08:00:00 9.1 4 Oeste 13 Sudoeste 0 -- -- 98
2019-04-03 07:00:00 8.8 5 Oeste 10 Oeste 0 -- -- 98
2019-04-03 06:00:00 8.8 5 Oeste 10 Noroeste 0 -- -- 97
2019-04-03 05:00:00 9.1 6 Oeste 12 Oeste 0 -- -- 97
2019-04-03 04:00:00 9.5 6 Oeste 12 Oeste 0 -- -- 97
2019-04-03 03:00:00 10 5 Oeste 13 Oeste 0 -- -- 97
2019-04-03 02:00:00 10.6 4 Oeste 10 Oeste 0 -- -- 96
2019-04-03 01:00:00 11.1 5 Oeste 11 Oeste 0.4 -- -- 96
2019-04-03 00:00:00 11.2 8 Oeste 16 Oeste 0 -- -- 96
2019-04-02 23:00:00 11.2 5 Oeste 12 Oeste 0 -- -- 94
2019-04-02 22:00:00 12 4 Sudoeste 13 Oeste 2.6 -- -- 93
2019-04-02 21:00:00 13 3 Sudoeste 18 Norte 0.4 -- -- 87
2019-04-02 20:00:00 14.7 3 Norte 6 Sudeste 0 -- -- 81
2019-04-02 19:00:00 15.3 3 Sudeste 15 Sudeste 0 -- -- 79
2019-04-02 18:00:00 15.3 7 Sur 17 Sur 0 -- -- 79
2019-04-02 17:00:00 15.6 11 Sudeste 20 Sudeste 0 -- -- 77
2019-04-02 16:00:00 17.6 13 Sur 24 Sudoeste 0 -- -- 69
2019-04-02 15:00:00 16.5 12 Sur 26 Sudeste 0 -- -- 74
2019-04-02 14:00:00 16.5 9 Este 18 Sudeste 0 -- -- 71
2019-04-02 13:00:00 16.1 8 Este 17 Nordeste 0 -- -- 68
2019-04-02 12:00:00 16 9 Este 17 Sudeste 0 -- -- 65
2019-04-02 11:00:00 14.8 6 Este 11 Este 0 -- -- 67
2019-04-02 10:00:00 11.4 4 Oeste 11 Oeste 0 -- -- 81
2019-04-02 09:00:00 8.9 5 Oeste 12 Oeste 0 -- -- 91
2019-04-02 08:00:00 6.3 6 Oeste 12 Oeste 0 -- -- 93
2019-04-02 07:00:00 6.4 4 Oeste 12 Oeste 0 -- -- 95
2019-04-02 06:00:00 6.7 6 Oeste 12 Oeste 0 -- -- 95
2019-04-02 05:00:00 6.7 5 Oeste 12 Oeste 0 -- -- 95
2019-04-02 04:00:00 6.1 7 Oeste 12 Oeste 0 -- -- 93
2019-04-02 03:00:00 6.1 6 Oeste 10 Oeste 0 -- -- 92
2019-04-02 02:00:00 6.6 6 Oeste 10 Oeste 0 -- -- 91
2019-04-02 01:00:00 7 6 Oeste 9 Oeste 0 -- -- 89
2019-04-02 00:00:00 8 5 Oeste 9 Oeste 0 -- -- 87
2019-04-01 23:00:00 9.1 6 Oeste 10 Oeste 0 -- -- 86
2019-04-01 22:00:00 10.3 6 Oeste 9 Oeste 0 -- -- 86
2019-04-01 21:00:00 11.9 0 Calma 7 Sur 0 -- -- 84
2019-04-01 20:00:00 13.5 4 Sur 12 Sudeste 0 -- -- 80
2019-04-01 19:00:00 14.2 9 Sur 19 Sudeste 0 -- -- 75
2019-04-01 18:00:00 14.8 9 Sudeste 17 Sur 0 -- -- 74
2019-04-01 17:00:00 15.3 9 Sudeste 22 Sur 0 -- -- 71
2019-04-01 16:00:00 16.2 10 Este 19 Este 0 -- -- 65
2019-04-01 15:00:00 16.3 10 Sudeste 17 Sudeste 0 -- -- 55
2019-04-01 14:00:00 16.2 10 Este 19 Este 0 -- -- 51
2019-04-01 13:00:00 16.6 10 Este 17 Este 0 -- -- 50
2019-04-01 12:00:00 15.6 6 Este 13 Sudeste 0 -- -- 47
2019-04-01 11:00:00 15.1 5 Este 11 Sudeste 0 -- -- 60
2019-04-01 10:00:00 13.2 2 Noroeste 14 Oeste 0 -- -- 74
2019-04-01 09:00:00 8.9 7 Sudoeste 13 Sudoeste 0 -- -- 84
2019-04-01 08:00:00 7.4 6 Oeste 12 Sudoeste 0 -- -- 88
2019-04-01 07:00:00 7.5 5 Oeste 12 Oeste 0 -- -- 88
2019-04-01 06:00:00 7.1 6 Oeste 13 Oeste 0 -- -- 87
2019-04-01 05:00:00 7.2 7 Oeste 13 Oeste 0 -- -- 86
2019-04-01 04:00:00 7 6 Oeste 13 Oeste 0 -- -- 82
2019-04-01 03:00:00 7.5 6 Oeste 10 Oeste 0 -- -- 86
2019-04-01 02:00:00 8.5 6 Oeste 12 Oeste 0 -- -- 85
2019-04-01 01:00:00 9.4 5 Oeste 9 Oeste 0 -- -- 89
2019-04-01 00:00:00 10.3 3 Oeste 9 Oeste 0 -- -- 87
2019-03-31 23:00:00 11.2 3 Oeste 6 Oeste 0 -- -- 86
2019-03-31 22:00:00 12.1 2 Este 8 Este 0 -- -- 86
2019-03-31 21:00:00 12.9 5 Este 9 Este 0 -- -- 82
2019-03-31 20:00:00 13.3 5 Este 16 Este 0 -- -- 82
2019-03-31 19:00:00 13.9 12 Este 19 Este 0 -- -- 79
2019-03-31 18:00:00 14.4 12 Este 24 Este 0 -- -- 75
2019-03-31 17:00:00 14.8 14 Este 26 Este 0 -- -- 73
2019-03-31 16:00:00 14.9 14 Este 26 Este 0 -- -- 73
2019-03-31 15:00:00 15.5 11 Este 23 Este 0 -- -- 68
2019-03-31 14:00:00 15.7 13 Este 23 Este 0 -- -- 67
2019-03-31 13:00:00 15.6 13 Este 26 Este 0 -- -- 69
2019-03-31 12:00:00 15.3 14 Este 26 Este 0 -- -- 68
2019-03-31 11:00:00 14.1 10 Nordeste 17 Nordeste 0 -- -- 75
2019-03-31 10:00:00 11.8 4 Oeste 15 Oeste 0 -- -- 79
2019-03-31 09:00:00 9.6 7 Oeste 12 Oeste 0 -- -- 84
2019-03-31 08:00:00 7.7 6 Oeste 13 Oeste 0 -- -- 91
2019-03-31 07:00:00 7.2 8 Oeste 15 Oeste 0 -- -- 93
2019-03-31 06:00:00 7 7 Oeste 14 Oeste 0 -- -- 93
2019-03-31 05:00:00 6.6 6 Oeste 13 Oeste 0 -- -- 94
2019-03-31 03:00:00 5.9 8 Oeste 13 Oeste 0 -- -- 93
2019-03-31 01:00:00 6.2 5 Oeste 12 Sudoeste 0 -- -- 92
2019-03-31 00:00:00 6.6 6 Sudoeste 12 Oeste 0 -- -- 90
2019-03-30 23:00:00 7.3 7 Oeste 13 Oeste 0 -- -- 87
2019-03-30 22:00:00 8.8 6 Oeste 11 Oeste 0 -- -- 84
2019-03-30 21:00:00 10.2 4 Oeste 6 Oeste 0 -- -- 81
2019-03-30 20:00:00 11.7 0 Calma 5 Este 0 -- -- 77
2019-03-30 19:00:00 13 4 Este 16 Este 0 -- -- 72
2019-03-30 18:00:00 13.8 9 Sudeste 17 Sudeste 0 -- -- 70
2019-03-30 17:00:00 14.4 9 Este 18 Sudeste 0 -- -- 68
2019-03-30 16:00:00 14.9 8 Sudeste 22 Sudeste 0 -- -- 67
2019-03-30 15:00:00 15 10 Sudeste 22 Este 0 -- -- 66
2019-03-30 14:00:00 16 10 Sudeste 24 Sudeste 0 -- -- 65
2019-03-30 13:00:00 15.7 11 Sudeste 22 Sudeste 0 -- -- 58
2019-03-30 12:00:00 15.7 10 Sudeste 23 Sudeste 0 -- -- 63
2019-03-30 11:00:00 15 10 Sudeste 19 Sudeste 0 -- -- 69
2019-03-30 10:00:00 13.9 5 Este 15 Este 0 -- -- 70
2019-03-30 09:00:00 9.1 6 Oeste 15 Sudoeste 0 -- -- 72
2019-03-30 08:00:00 4.7 8 Oeste 15 Oeste 0 -- -- 82
2019-03-30 07:00:00 2.9 8 Oeste 16 Oeste 0 -- -- 87
2019-03-30 06:00:00 3.1 8 Oeste 18 Sudoeste 0 -- -- 87
2019-03-30 05:00:00 3.3 8 Oeste 15 Oeste 0 -- -- 87
2019-03-30 04:00:00 3.7 7 Oeste 18 Oeste 0 -- -- 86
2019-03-30 03:00:00 4.1 7 Oeste 15 Sudoeste 0 -- -- 86
2019-03-30 02:00:00 4.6 7 Sudoeste 15 Oeste 0 -- -- 88
2019-03-30 01:00:00 5.2 8 Oeste 13 Oeste 0 -- -- 87
2019-03-30 00:00:00 5.6 8 Oeste 14 Oeste 0 -- -- 86
2019-03-29 23:00:00 6.2 6 Oeste 13 Oeste 0 -- -- 84
2019-03-29 22:00:00 7.3 7 Oeste 12 Oeste 0 -- -- 78
2019-03-29 21:00:00 8.9 5 Oeste 9 Oeste 0 -- -- 73
2019-03-29 20:00:00 11.1 3 Sudoeste 5 Sudoeste 0 -- -- 71
2019-03-29 19:00:00 13.4 2 Sudeste 10 Este 0 -- -- 64
2019-03-29 18:00:00 14.5 5 Este 14 Este 0 -- -- 55
2019-03-29 17:00:00 15.2 7 Este 19 Este 0 -- -- 52
2019-03-29 16:00:00 15.4 10 Este 21 Nordeste 0 -- -- 60
2019-03-29 15:00:00 16.2 10 Sudeste 24 Este 0 -- -- 48
2019-03-29 14:00:00 17.2 7 Sudeste 21 Sur 0 -- -- 46
2019-03-29 13:00:00 16.6 10 Este 20 Sudeste 0 -- -- 44
2019-03-29 12:00:00 16.8 10 Sudeste 21 Sudeste 0 -- -- 43
2019-03-29 11:00:00 16.5 9 Este 17 Este 0 -- -- 41
2019-03-29 10:00:00 13.8 2 Noroeste 17 Oeste 0 -- -- 66
2019-03-29 09:00:00 9.9 7 Oeste 22 Oeste 0 -- -- 71
2019-03-29 08:00:00 6.1 8 Oeste 16 Oeste 0 -- -- 83
2019-03-29 07:00:00 3.1 8 Oeste 13 Oeste 0 -- -- 90
2019-03-29 06:00:00 3.7 7 Oeste 14 Oeste 0 -- -- 87
2019-03-29 05:00:00 4.5 7 Oeste 14 Oeste 0 -- -- 84
2019-03-29 04:00:00 5.3 6 Oeste 13 Oeste 0 -- -- 84
2019-03-29 03:00:00 5.2 8 Oeste 14 Oeste 0 -- -- 82
2019-03-29 02:00:00 6.7 4 Noroeste 13 Sudoeste 0 -- -- 79
2019-03-29 01:00:00 6.1 7 Oeste 14 Oeste 0 -- -- 75
2019-03-29 00:00:00 6.1 6 Oeste 13 Oeste 0 -- -- 73
2019-03-28 23:00:00 6.9 7 Oeste 15 Oeste 0 -- -- 70
2019-03-28 22:00:00 7.5 7 Oeste 12 Oeste 0 -- -- 69
2019-03-28 21:00:00 8.5 7 Oeste 10 Oeste 0 -- -- 68
2019-03-28 20:00:00 10.4 3 Oeste 6 Oeste 0 -- -- 65
2019-03-28 19:00:00 13 0 Calma 10 Sur 0 -- -- 58
2019-03-28 18:00:00 14.3 4 Sur 12 Sur 0 -- -- 53
2019-03-28 17:00:00 14.6 4 Este 16 Este 0 -- -- 50
2019-03-28 16:00:00 14.9 8 Este 24 Este 0 -- -- 56
2019-03-28 15:00:00 14.6 13 Este 23 Sudeste 0 -- -- 59
2019-03-28 14:00:00 15.1 12 Este 30 Nordeste 0 -- -- 56
2019-03-28 13:00:00 15.2 16 Este 39 Este 0 -- -- 54
2019-03-28 12:00:00 15.9 17 Este 31 Nordeste 0 -- -- 56
2019-03-28 11:00:00 16.9 5 Sudeste 17 Este 0 -- -- 43
2019-03-28 10:00:00 14.7 6 Oeste 15 Oeste 0 -- -- 44
2019-03-28 09:00:00 11.2 8 Oeste 18 Oeste 0 -- -- 54
2019-03-28 08:00:00 6.1 8 Oeste 18 Oeste 0 -- -- 74
2019-03-28 07:00:00 4 9 Oeste 16 Oeste 0 -- -- 81
2019-03-28 06:00:00 4.1 9 Oeste 16 Oeste 0 -- -- 80
2019-03-28 05:00:00 4.5 9 Oeste 15 Oeste 0 -- -- 80
2019-03-28 04:00:00 4.9 6 Oeste 14 Sudoeste 0 -- -- 79
2019-03-28 03:00:00 4.9 5 Oeste 12 Oeste 0 -- -- 79
2019-03-28 02:00:00 6.5 4 Oeste 13 Oeste 0 -- -- 74
2019-03-28 01:00:00 6.3 6 Oeste 13 Oeste 0 -- -- 75
2019-03-28 00:00:00 6.8 10 Oeste 18 Oeste 0 -- -- 75
2019-03-27 23:00:00 6.3 8 Oeste 14 Oeste 0 -- -- 77
2019-03-27 22:00:00 7.5 8 Oeste 14 Oeste 0 -- -- 75
2019-03-27 21:00:00 8.4 5 Oeste 12 Oeste 0 -- -- 72
2019-03-27 20:00:00 10.5 3 Sudoeste 5 Oeste 0 -- -- 66
2019-03-27 19:00:00 13 3 Sur 12 Sur 0 -- -- 58
2019-03-27 18:00:00 13.9 7 Sur 12 Sudeste 0 -- -- 52
2019-03-27 17:00:00 14.7 6 Sudeste 19 Sur 0 -- -- 50
2019-03-27 16:00:00 15.6 10 Sudeste 28 Sur 0 -- -- 50
2019-03-27 15:00:00 16.1 12 Este 29 Este 0 -- -- 49
2019-03-27 14:00:00 16.5 9 Este 23 Sudeste 0 -- -- 48
2019-03-27 13:00:00 18 9 Este 31 Norte 0 -- -- 35
2019-03-27 12:00:00 18.8 10 Nordeste 26 Oeste 0 -- -- 22
2019-03-27 11:00:00 16.8 12 Nordeste 24 Noroeste 0 -- -- 27
2019-03-27 10:00:00 15.2 12 Noroeste 22 Nordeste 0 -- -- 30
2019-03-27 09:00:00 13.2 5 Noroeste 23 Nordeste 0 -- -- 36
2019-03-27 08:00:00 9 5 Sudoeste 12 Oeste 0 -- -- 41
2019-03-27 07:00:00 7.7 4 Oeste 12 Noroeste 0 -- -- 43
2019-03-27 06:00:00 10.8 3 Norte 28 Nordeste 0 -- -- 34
2019-03-27 05:00:00 11 9 Norte 22 Norte 0 -- -- 34
2019-03-27 04:00:00 11.3 7 Nordeste 18 Noroeste 0 -- -- 33
2019-03-27 03:00:00 12 6 Norte 22 Este 0 -- -- 33
2019-03-27 02:00:00 13.1 8 Norte 36 Norte 0 -- -- 29
2019-03-27 01:00:00 14 16 Nordeste 35 Nordeste 0 -- -- 27
2019-03-27 00:00:00 14.5 17 Norte 38 Norte 0 -- -- 26